La Salle/Peru, Illinois
Current Conditions -  °F | °C
As of 7:15 PM on Friday 24 Oct 2014 (Local Time) from KVYS Reporting Station
Broken Clouds Broken Clouds  
Wind Chill: 58°   Ceiling: 4100
Heat Index: 58°   Visibility: 10mi
Dew Point: 45°   Wind: 8mph
Humidity: 64%   Direction: 180°S
Pressure: 29.97"   Gusts: NA
Location:  41.45°N, 89.1°W
Report Text: KVYS 250015Z AUTO 18007KT 10SM BKN041 BKN050 14/07 A2997 RMK AO2 T01420074
Loading
Personal Weather Stations






























Interactive Weather Map
Tropical Storm Tracking
New forecast layout! Learn more

10-Day Weather Forecast

Advertisements
Track Severe Weather on mobile